createdAt,value
2023-05-19T00:01:15.327Z,14.76
2023-05-19T00:03:53.369Z,14.74
2023-05-19T00:06:24.247Z,14.80
2023-05-19T00:08:57.416Z,14.61
2023-05-19T00:11:25.978Z,14.56
2023-05-19T00:13:54.933Z,14.42
2023-05-19T00:16:26.471Z,14.51
2023-05-19T00:18:54.018Z,14.55
2023-05-19T00:21:21.507Z,14.53
2023-05-19T00:23:49.098Z,14.51
2023-05-19T00:26:16.360Z,14.54
2023-05-19T00:28:43.838Z,14.55
2023-05-19T00:31:11.199Z,14.49
2023-05-19T00:33:38.511Z,14.52
2023-05-19T00:36:06.281Z,14.40
2023-05-19T00:38:36.438Z,14.43
2023-05-19T00:41:05.690Z,14.52
2023-05-19T00:43:33.263Z,14.49
2023-05-19T00:46:00.703Z,14.51
2023-05-19T00:48:28.330Z,14.45
2023-05-19T00:51:03.727Z,14.47
2023-05-19T00:53:32.669Z,14.43
2023-05-19T00:56:05.949Z,14.44
2023-05-19T00:58:33.646Z,14.40
2023-05-19T01:01:05.323Z,14.42
2023-05-19T01:03:36.309Z,14.35
2023-05-19T01:06:07.946Z,14.41
2023-05-19T01:08:42.297Z,14.34
2023-05-19T01:11:15.426Z,14.44
2023-05-19T01:13:47.448Z,14.33
2023-05-19T01:16:56.510Z,14.30
2023-05-19T01:19:40.883Z,14.39
2023-05-19T01:22:32.297Z,14.34
2023-05-19T01:25:41.089Z,14.31
2023-05-19T01:28:22.736Z,14.29
2023-05-19T01:30:55.401Z,14.26
2023-05-19T01:33:28.597Z,14.22
2023-05-19T01:35:58.297Z,14.29
2023-05-19T01:38:33.015Z,14.23
2023-05-19T01:41:06.106Z,14.24
2023-05-19T01:43:37.158Z,14.24
2023-05-19T01:46:08.256Z,14.32
2023-05-19T01:48:35.845Z,14.37
2023-05-19T01:51:03.211Z,14.35
2023-05-19T01:53:37.615Z,14.41
2023-05-19T01:56:06.145Z,14.29
2023-05-19T01:58:48.417Z,14.27
2023-05-19T02:01:30.611Z,14.23
2023-05-19T02:04:16.899Z,14.22
2023-05-19T02:07:13.079Z,14.26
2023-05-19T02:09:58.279Z,14.16
2023-05-19T02:12:34.316Z,14.09
2023-05-19T02:15:15.691Z,14.13
2023-05-19T02:17:46.586Z,14.03
2023-05-19T02:20:18.220Z,14.03
2023-05-19T02:22:52.463Z,14.00
2023-05-19T02:25:23.107Z,14.08
2023-05-19T02:27:53.247Z,14.09
2023-05-19T02:30:24.547Z,14.06
2023-05-19T02:32:55.264Z,14.10
2023-05-19T02:35:26.153Z,14.13
2023-05-19T02:37:53.793Z,14.11
2023-05-19T02:40:25.239Z,14.08
2023-05-19T02:42:55.259Z,14.04
2023-05-19T02:45:25.483Z,14.04
2023-05-19T02:48:02.314Z,14.06
2023-05-19T02:50:30.558Z,14.03
2023-05-19T02:53:01.210Z,14.05
2023-05-19T02:55:32.199Z,13.95
2023-05-19T02:58:02.811Z,14.03
2023-05-19T03:00:38.999Z,13.92
2023-05-19T03:03:12.510Z,14.06
2023-05-19T03:05:43.393Z,14.07
2023-05-19T03:08:14.241Z,14.01
2023-05-19T03:10:41.484Z,13.98
2023-05-19T03:13:11.531Z,14.01
2023-05-19T03:15:39.179Z,14.09
2023-05-19T03:18:09.605Z,14.14
2023-05-19T03:20:42.750Z,14.07
2023-05-19T03:23:13.464Z,14.15
2023-05-19T03:25:47.000Z,14.47
2023-05-19T03:28:14.289Z,15.39
2023-05-19T03:30:42.393Z,15.80
2023-05-19T03:33:14.452Z,16.07
2023-05-19T03:35:45.870Z,16.40
2023-05-19T03:38:19.274Z,16.47
2023-05-19T03:40:55.381Z,16.35
2023-05-19T03:43:26.176Z,16.16
2023-05-19T03:45:53.526Z,16.44
2023-05-19T03:48:24.194Z,16.19
2023-05-19T03:50:55.128Z,16.59
2023-05-19T03:53:25.990Z,16.53
2023-05-19T03:55:53.922Z,16.29
2023-05-19T03:58:24.559Z,16.31
2023-05-19T04:00:55.330Z,16.63
2023-05-19T04:03:23.761Z,16.60
2023-05-19T04:05:54.158Z,16.54
2023-05-19T04:08:28.193Z,16.54
2023-05-19T04:10:56.196Z,16.38
2023-05-19T04:13:24.001Z,16.46
2023-05-19T04:15:52.377Z,16.79
2023-05-19T04:18:20.273Z,16.85
2023-05-19T04:20:48.054Z,16.56
2023-05-19T04:23:15.339Z,16.34
2023-05-19T04:25:43.117Z,16.12
2023-05-19T04:28:10.281Z,16.37
2023-05-19T04:30:37.633Z,15.71
2023-05-19T04:33:05.574Z,15.28
2023-05-19T04:35:33.164Z,15.14
2023-05-19T04:38:00.445Z,14.94
2023-05-19T04:40:27.983Z,14.97
2023-05-19T04:42:55.237Z,15.01
2023-05-19T04:45:22.975Z,15.08
2023-05-19T04:47:50.842Z,15.18
2023-05-19T04:50:18.458Z,15.28
2023-05-19T04:52:45.793Z,15.33
2023-05-19T04:55:13.507Z,15.48
2023-05-19T04:57:41.010Z,15.45
2023-05-19T05:00:09.285Z,15.49
2023-05-19T05:02:37.025Z,15.53
2023-05-19T05:05:05.691Z,15.66
2023-05-19T05:07:38.835Z,15.79
2023-05-19T05:10:07.288Z,15.94
2023-05-19T05:12:43.698Z,16.01
2023-05-19T05:15:11.627Z,16.05
2023-05-19T05:17:39.299Z,16.20
2023-05-19T05:20:07.296Z,16.30
2023-05-19T05:22:35.009Z,16.35
2023-05-19T05:25:03.299Z,16.42
2023-05-19T05:27:31.187Z,16.53
2023-05-19T05:29:59.281Z,16.58
2023-05-19T05:32:26.840Z,16.49
2023-05-19T05:34:54.273Z,16.44
2023-05-19T05:37:21.601Z,16.44
2023-05-19T05:39:49.016Z,16.44
2023-05-19T05:42:16.341Z,16.42
2023-05-19T05:44:43.660Z,16.64
2023-05-19T05:47:11.437Z,16.80
2023-05-19T05:49:39.256Z,16.80
2023-05-19T05:52:08.366Z,16.92
2023-05-19T05:54:35.894Z,17.10
2023-05-19T05:57:03.530Z,17.26
2023-05-19T05:59:31.149Z,17.43
2023-05-19T06:01:58.691Z,17.65
2023-05-19T06:04:26.051Z,17.71
2023-05-19T06:06:53.295Z,17.85
2023-05-19T06:09:20.633Z,17.91
2023-05-19T06:11:47.919Z,18.42
2023-05-19T06:14:15.114Z,18.46
2023-05-19T06:16:42.353Z,18.86
2023-05-19T06:19:10.204Z,19.09
2023-05-19T06:21:37.519Z,19.23
2023-05-19T06:24:05.014Z,19.33
2023-05-19T06:26:33.113Z,19.39
2023-05-19T06:29:00.686Z,19.61
2023-05-19T06:31:28.808Z,19.84
2023-05-19T06:33:56.287Z,20.13
2023-05-19T06:36:23.970Z,20.40
2023-05-19T06:38:51.466Z,20.50
2023-05-19T06:41:18.926Z,20.81
2023-05-19T06:43:46.323Z,20.84
2023-05-19T06:46:13.834Z,20.81
2023-05-19T06:48:41.434Z,21.00
2023-05-19T06:51:08.863Z,21.19
2023-05-19T06:53:36.223Z,21.27
2023-05-19T06:56:04.672Z,21.25
2023-05-19T06:58:32.183Z,21.42
2023-05-19T07:01:00.009Z,21.59
2023-05-19T07:03:27.690Z,21.63
2023-05-19T07:05:55.526Z,21.78
2023-05-19T07:08:22.960Z,21.77
2023-05-19T07:10:51.249Z,21.90
2023-05-19T07:13:18.667Z,21.89
2023-05-19T07:15:46.095Z,22.05
2023-05-19T07:18:13.846Z,22.04
2023-05-19T07:20:41.464Z,22.30
2023-05-19T07:23:08.904Z,22.29
2023-05-19T07:25:36.277Z,22.54
2023-05-19T07:28:04.080Z,22.58
2023-05-19T07:30:31.983Z,22.58
2023-05-19T07:32:59.677Z,22.63
2023-05-19T07:35:27.197Z,22.63
2023-05-19T07:37:54.625Z,22.73
2023-05-19T07:40:22.086Z,22.86
2023-05-19T07:42:50.223Z,22.99
2023-05-19T07:45:17.943Z,22.96
2023-05-19T07:47:45.684Z,23.03
2023-05-19T07:50:13.185Z,23.14
2023-05-19T07:52:40.706Z,23.24
2023-05-19T07:55:08.329Z,23.34
2023-05-19T07:57:35.710Z,23.46
2023-05-19T08:00:04.565Z,23.39
2023-05-19T08:02:32.008Z,23.40
2023-05-19T08:04:59.684Z,23.24
2023-05-19T08:07:27.311Z,23.36
2023-05-19T08:09:55.338Z,23.39
2023-05-19T08:12:22.798Z,23.54
2023-05-19T08:14:50.246Z,23.47
2023-05-19T08:17:17.866Z,23.39
2023-05-19T08:19:45.261Z,23.41
2023-05-19T08:22:12.638Z,23.53
2023-05-19T08:24:40.250Z,23.62
2023-05-19T08:27:07.794Z,23.46
2023-05-19T08:29:35.205Z,23.55
2023-05-19T08:32:02.613Z,23.51
2023-05-19T08:34:30.153Z,23.59
2023-05-19T08:36:57.555Z,23.76
2023-05-19T08:39:25.527Z,23.85
2023-05-19T08:41:56.333Z,23.90
2023-05-19T08:44:23.754Z,24.04
2023-05-19T08:46:54.361Z,24.13
2023-05-19T08:49:27.129Z,24.07
2023-05-19T08:52:02.545Z,24.08
2023-05-19T08:54:37.763Z,24.11
2023-05-19T08:57:06.217Z,23.62
2023-05-19T08:59:34.540Z,23.24
2023-05-19T09:02:03.938Z,23.31
2023-05-19T09:04:32.110Z,23.29
2023-05-19T09:07:00.222Z,23.11
2023-05-19T09:09:27.646Z,22.96
2023-05-19T09:11:55.022Z,22.81
2023-05-19T09:14:23.066Z,22.58
2023-05-19T09:16:50.852Z,22.45
2023-05-19T09:19:18.607Z,22.28
2023-05-19T09:21:46.087Z,22.14
2023-05-19T09:24:13.676Z,22.11
2023-05-19T09:26:42.854Z,22.09
2023-05-19T09:29:15.244Z,22.18
2023-05-19T09:31:53.638Z,22.21
2023-05-19T09:34:22.139Z,22.24
2023-05-19T09:36:49.871Z,22.73
2023-05-19T09:39:19.166Z,23.03
2023-05-19T09:41:51.670Z,23.02
2023-05-19T09:44:28.458Z,23.22
2023-05-19T09:46:56.646Z,23.41
2023-05-19T09:49:27.350Z,23.65
2023-05-19T09:51:55.466Z,23.72
2023-05-19T09:54:24.245Z,23.79
2023-05-19T09:57:02.266Z,23.63
2023-05-19T09:59:32.893Z,23.76
2023-05-19T10:02:02.168Z,23.92
2023-05-19T10:04:30.709Z,23.69
2023-05-19T10:06:59.114Z,23.81
2023-05-19T10:09:29.245Z,24.04
2023-05-19T10:11:58.783Z,23.96
2023-05-19T10:14:29.910Z,23.56
2023-05-19T10:16:58.877Z,23.52
2023-05-19T10:19:28.309Z,23.95
2023-05-19T10:21:56.175Z,24.09
2023-05-19T10:24:23.905Z,24.28
2023-05-19T10:26:56.718Z,23.95
2023-05-19T10:29:28.786Z,23.80
2023-05-19T10:31:59.489Z,24.14
2023-05-19T10:34:55.226Z,24.33
2023-05-19T10:37:41.869Z,24.16
2023-05-19T10:40:27.532Z,23.78
2023-05-19T10:43:25.631Z,23.82
2023-05-19T10:45:54.634Z,23.92
2023-05-19T10:48:22.270Z,23.75
2023-05-19T10:50:54.388Z,23.91
2023-05-19T10:53:21.873Z,23.73
2023-05-19T10:55:52.875Z,23.81
2023-05-19T10:58:40.172Z,24.08
2023-05-19T11:01:15.814Z,24.40
2023-05-19T11:03:51.492Z,24.32
2023-05-19T11:06:19.800Z,24.31
2023-05-19T11:08:52.154Z,24.10
2023-05-19T11:11:19.853Z,23.67
2023-05-19T11:13:48.581Z,23.30
2023-05-19T11:16:19.169Z,23.62
2023-05-19T11:18:49.959Z,23.54
2023-05-19T11:21:19.773Z,23.42
2023-05-19T11:23:47.467Z,23.48
2023-05-19T11:26:14.937Z,23.47
2023-05-19T11:28:42.959Z,23.25
2023-05-19T11:31:11.035Z,23.10
2023-05-19T11:33:39.837Z,22.99
2023-05-19T11:36:08.280Z,22.95
2023-05-19T11:38:35.695Z,22.94
2023-05-19T11:41:03.837Z,22.90
2023-05-19T11:43:31.372Z,22.97
2023-05-19T11:45:59.579Z,22.91
2023-05-19T11:48:27.055Z,22.89
2023-05-19T11:50:54.588Z,22.91
2023-05-19T11:53:23.156Z,23.01
2023-05-19T11:55:50.918Z,23.22
2023-05-19T11:58:25.733Z,23.16
2023-05-19T12:00:53.173Z,23.05
2023-05-19T12:03:23.823Z,23.02
2023-05-19T12:05:51.957Z,22.94
2023-05-19T12:08:19.932Z,22.95
2023-05-19T12:10:50.323Z,22.98
2023-05-19T12:13:17.853Z,23.17
2023-05-19T12:15:45.405Z,23.35
2023-05-19T12:18:12.865Z,23.20
2023-05-19T12:20:40.542Z,23.17
2023-05-19T12:23:08.048Z,22.61
2023-05-19T12:25:35.682Z,22.49
2023-05-19T12:28:03.531Z,22.14
2023-05-19T12:30:32.230Z,21.96
2023-05-19T12:33:01.687Z,21.15
2023-05-19T12:35:37.657Z,21.01
2023-05-19T12:38:06.869Z,21.07
2023-05-19T12:40:35.981Z,21.05
2023-05-19T12:43:04.195Z,20.89
2023-05-19T12:45:37.804Z,21.10
2023-05-19T12:48:06.274Z,20.93
2023-05-19T12:50:34.833Z,20.88
2023-05-19T12:53:02.603Z,20.92
2023-05-19T12:55:30.408Z,20.95
2023-05-19T12:57:58.030Z,21.43
2023-05-19T13:00:32.863Z,21.41
2023-05-19T13:03:07.785Z,21.32
2023-05-19T13:05:50.869Z,21.24
2023-05-19T13:08:20.735Z,21.22
2023-05-19T13:10:48.443Z,21.12
2023-05-19T13:13:16.439Z,20.88
2023-05-19T13:15:45.644Z,20.74
2023-05-19T13:18:14.876Z,20.74
2023-05-19T13:20:44.663Z,20.18
2023-05-19T13:23:13.453Z,19.77
2023-05-19T13:25:41.316Z,19.42
2023-05-19T13:28:08.989Z,19.25
2023-05-19T13:30:38.105Z,18.99
2023-05-19T13:33:05.963Z,18.45
2023-05-19T13:35:33.562Z,18.04
2023-05-19T13:38:01.482Z,17.98
2023-05-19T13:40:28.788Z,17.66
2023-05-19T13:42:55.944Z,17.61
2023-05-19T13:45:23.134Z,17.34
2023-05-19T13:47:50.429Z,17.25
2023-05-19T13:50:17.808Z,17.16
2023-05-19T13:53:03.027Z,17.14
2023-05-19T13:55:48.363Z,17.16
2023-05-19T13:58:16.535Z,17.33
2023-05-19T14:00:44.032Z,17.29
2023-05-19T14:03:11.504Z,17.38
2023-05-19T14:05:38.964Z,17.80
2023-05-19T14:08:06.176Z,17.98
2023-05-19T14:10:33.652Z,18.16
2023-05-19T14:15:33.429Z,18.37
2023-05-19T14:18:00.766Z,18.36
2023-05-19T14:20:29.434Z,18.51
2023-05-19T14:22:56.862Z,18.66
2023-05-19T14:25:24.872Z,18.05
2023-05-19T14:27:52.256Z,17.88
2023-05-19T14:30:19.475Z,17.74
2023-05-19T14:32:47.088Z,17.74
2023-05-19T14:35:14.404Z,17.56
2023-05-19T14:37:41.618Z,17.64
2023-05-19T14:40:09.222Z,17.70
2023-05-19T14:42:36.359Z,17.70
2023-05-19T14:45:03.744Z,17.75
2023-05-19T14:47:31.096Z,17.68
2023-05-19T14:49:58.714Z,17.58
2023-05-19T14:52:25.993Z,17.54
2023-05-19T14:54:53.133Z,17.58
2023-05-19T14:57:20.279Z,17.55
2023-05-19T14:59:47.574Z,17.53
2023-05-19T15:02:14.693Z,17.56
2023-05-19T15:04:41.870Z,17.55
2023-05-19T15:07:10.632Z,17.62
2023-05-19T15:09:38.634Z,17.80
2023-05-19T15:12:06.620Z,17.70
2023-05-19T15:14:34.170Z,17.73
2023-05-19T15:17:01.443Z,17.91
2023-05-19T15:19:29.488Z,18.05
2023-05-19T15:21:56.872Z,18.11
2023-05-19T15:24:24.054Z,18.16
2023-05-19T15:26:51.354Z,18.15
2023-05-19T15:29:19.335Z,18.07
2023-05-19T15:31:49.481Z,18.04
2023-05-19T15:34:17.220Z,18.13
2023-05-19T15:36:44.645Z,18.05
2023-05-19T15:39:11.876Z,17.96
2023-05-19T15:41:39.076Z,18.07
2023-05-19T15:44:06.644Z,18.02
2023-05-19T15:46:34.059Z,17.99
2023-05-19T15:49:01.270Z,17.95
2023-05-19T15:51:28.528Z,17.93
2023-05-19T15:53:55.704Z,18.94
2023-05-19T15:56:22.909Z,18.99
2023-05-19T15:58:50.253Z,19.04
2023-05-19T16:01:18.267Z,19.23
2023-05-19T16:03:46.054Z,19.25
2023-05-19T16:06:13.818Z,19.52
2023-05-19T16:08:40.962Z,19.41
2023-05-19T16:11:08.157Z,19.65
2023-05-19T16:13:35.403Z,19.56
2023-05-19T16:16:03.464Z,19.50
2023-05-19T16:18:30.704Z,19.35
2023-05-19T16:20:58.125Z,19.66
2023-05-19T16:23:25.527Z,19.71
2023-05-19T16:25:53.174Z,19.75
2023-05-19T16:28:22.389Z,19.63
2023-05-19T16:30:50.364Z,19.49
2023-05-19T16:33:17.650Z,19.61
2023-05-19T16:35:44.845Z,19.14
2023-05-19T16:38:12.086Z,18.53
2023-05-19T16:40:39.425Z,18.27
2023-05-19T16:43:06.690Z,18.07
2023-05-19T16:45:33.881Z,17.99
2023-05-19T16:48:01.152Z,17.90
2023-05-19T16:50:28.452Z,17.79
2023-05-19T16:52:55.759Z,17.74
2023-05-19T16:55:22.964Z,17.73
2023-05-19T16:57:50.170Z,17.68
2023-05-19T17:00:17.547Z,17.66
2023-05-19T17:02:44.956Z,17.58
2023-05-19T17:05:12.410Z,17.57
2023-05-19T17:07:39.699Z,17.58
2023-05-19T17:10:07.288Z,17.57
2023-05-19T17:12:34.416Z,17.55
2023-05-19T17:15:01.654Z,17.58
2023-05-19T17:17:29.008Z,17.63
2023-05-19T17:19:56.188Z,17.59
2023-05-19T17:22:23.477Z,17.52
2023-05-19T17:24:50.591Z,17.56
2023-05-19T17:27:17.775Z,17.57
2023-05-19T17:29:45.107Z,17.40
2023-05-19T17:32:12.373Z,17.41
2023-05-19T17:34:39.530Z,17.31
2023-05-19T17:37:06.843Z,17.45
2023-05-19T17:39:34.102Z,17.31
2023-05-19T17:42:01.752Z,17.28
2023-05-19T17:44:28.932Z,17.26
2023-05-19T17:46:56.274Z,17.15
2023-05-19T17:49:23.602Z,17.14
2023-05-19T17:51:51.162Z,17.18
2023-05-19T17:54:18.682Z,17.02
2023-05-19T17:56:46.054Z,17.06
2023-05-19T17:59:13.516Z,17.00
2023-05-19T18:01:41.032Z,17.03
2023-05-19T18:04:08.871Z,16.97
2023-05-19T18:06:43.225Z,16.98
2023-05-19T18:09:11.166Z,16.81
2023-05-19T18:11:38.475Z,16.76
2023-05-19T18:14:05.714Z,17.00
2023-05-19T18:16:33.095Z,17.27
2023-05-19T18:19:03.607Z,17.50
2023-05-19T18:21:31.053Z,17.53
2023-05-19T18:23:58.207Z,17.64
2023-05-19T18:26:28.995Z,17.72
2023-05-19T18:28:56.635Z,17.80
2023-05-19T18:31:23.866Z,17.63
2023-05-19T18:33:51.271Z,17.64
2023-05-19T18:36:22.077Z,17.58
2023-05-19T18:38:50.134Z,17.72
2023-05-19T18:41:18.565Z,17.70
2023-05-19T18:43:46.359Z,17.60
2023-05-19T18:46:13.805Z,17.53
2023-05-19T18:48:41.478Z,17.52
2023-05-19T18:51:11.982Z,17.62
2023-05-19T18:53:39.389Z,17.65
2023-05-19T18:56:07.104Z,17.58
2023-05-19T18:58:34.490Z,17.65
2023-05-19T19:01:02.041Z,17.57
2023-05-19T19:03:29.654Z,17.41
2023-05-19T19:05:58.689Z,17.48
2023-05-19T19:08:26.079Z,17.24
2023-05-19T19:10:53.786Z,17.22
2023-05-19T19:13:21.372Z,17.27
2023-05-19T19:15:48.965Z,17.26
2023-05-19T19:18:19.540Z,17.29
2023-05-19T19:20:49.584Z,17.31
2023-05-19T19:23:17.150Z,17.25
2023-05-19T19:25:45.008Z,17.28
2023-05-19T19:28:12.422Z,17.30
2023-05-19T19:30:41.857Z,17.20
2023-05-19T19:33:09.293Z,17.12
2023-05-19T19:35:36.725Z,17.22
2023-05-19T19:38:04.069Z,17.16
2023-05-19T19:40:31.284Z,17.11
2023-05-19T19:42:58.742Z,17.10
2023-05-19T19:45:29.468Z,17.17
2023-05-19T19:47:56.767Z,17.15
2023-05-19T19:50:24.366Z,17.22
2023-05-19T19:52:51.567Z,17.23
2023-05-19T19:55:19.167Z,17.20
2023-05-19T19:57:46.510Z,16.96
2023-05-19T20:00:15.918Z,16.98
2023-05-19T20:02:55.807Z,16.91
2023-05-19T20:05:30.579Z,16.92
2023-05-19T20:07:57.916Z,17.10
2023-05-19T20:10:25.201Z,17.08
2023-05-19T20:12:52.520Z,16.98
2023-05-19T20:15:19.725Z,17.05
2023-05-19T20:17:47.034Z,17.11
2023-05-19T20:20:14.588Z,17.01
2023-05-19T20:22:41.848Z,16.98
2023-05-19T20:25:09.287Z,17.05
2023-05-19T20:27:36.462Z,17.18
2023-05-19T20:30:04.170Z,17.09
2023-05-19T20:32:31.499Z,16.97
2023-05-19T20:34:58.655Z,17.06
2023-05-19T20:37:25.923Z,17.14
2023-05-19T20:39:53.181Z,17.33
2023-05-19T20:42:20.352Z,17.60
2023-05-19T20:44:47.557Z,17.30
2023-05-19T20:47:15.064Z,17.04
2023-05-19T20:49:42.385Z,17.06
2023-05-19T20:52:09.518Z,17.01
2023-05-19T20:54:36.762Z,17.04
2023-05-19T20:57:04.162Z,17.15
2023-05-19T20:59:31.411Z,17.01
2023-05-19T21:01:58.693Z,16.76
2023-05-19T21:04:25.841Z,16.87
2023-05-19T21:06:53.192Z,16.89
2023-05-19T21:09:20.506Z,16.92
2023-05-19T21:11:47.687Z,16.84
2023-05-19T21:14:14.887Z,16.66
2023-05-19T21:16:42.107Z,16.62
2023-05-19T21:19:09.363Z,16.80
2023-05-19T21:21:36.625Z,16.66
2023-05-19T21:24:03.938Z,16.58
2023-05-19T21:26:31.179Z,16.65
2023-05-19T21:28:58.609Z,16.73
2023-05-19T21:31:25.955Z,16.58
2023-05-19T21:33:53.416Z,16.69
2023-05-19T21:36:20.681Z,16.59
2023-05-19T21:38:47.839Z,16.52
2023-05-19T21:41:15.357Z,16.51
2023-05-19T21:43:42.539Z,16.57
2023-05-19T21:46:10.449Z,16.67
2023-05-19T21:48:37.705Z,16.67
2023-05-19T21:51:05.026Z,16.60
2023-05-19T21:53:32.604Z,16.49
2023-05-19T21:56:00.235Z,16.50
2023-05-19T21:58:27.396Z,16.47
2023-05-19T22:00:54.705Z,16.49
2023-05-19T22:03:22.345Z,16.37
2023-05-19T22:05:53.293Z,16.33
2023-05-19T22:08:21.228Z,16.49
2023-05-19T22:10:50.143Z,16.49
2023-05-19T22:13:17.712Z,16.29
2023-05-19T22:15:45.215Z,16.36
2023-05-19T22:18:13.139Z,16.37
2023-05-19T22:20:40.735Z,16.25
2023-05-19T22:23:07.865Z,16.26
2023-05-19T22:25:35.147Z,16.49
2023-05-19T22:28:02.836Z,16.36
2023-05-19T22:30:30.437Z,16.18
2023-05-19T22:32:57.724Z,15.94
2023-05-19T22:35:25.117Z,16.05
2023-05-19T22:37:52.315Z,16.03
2023-05-19T22:40:19.592Z,16.02
2023-05-19T22:42:46.692Z,16.02
2023-05-19T22:45:14.046Z,16.00
2023-05-19T22:47:41.269Z,16.02
2023-05-19T22:50:08.921Z,16.08
2023-05-19T22:52:36.422Z,15.95
2023-05-19T22:55:04.281Z,15.94
2023-05-19T22:57:31.776Z,16.01
2023-05-19T22:59:58.960Z,15.99
2023-05-19T23:02:26.859Z,16.00
2023-05-19T23:04:54.098Z,15.94
2023-05-19T23:07:21.395Z,15.86
2023-05-19T23:09:48.717Z,15.88
2023-05-19T23:12:16.855Z,15.72
2023-05-19T23:14:44.103Z,15.72
2023-05-19T23:17:11.451Z,15.64
2023-05-19T23:19:38.663Z,15.66
2023-05-19T23:22:05.846Z,15.55
2023-05-19T23:24:33.943Z,15.54
2023-05-19T23:27:01.913Z,15.55
2023-05-19T23:29:32.587Z,15.58
2023-05-19T23:32:00.133Z,15.64
2023-05-19T23:34:30.773Z,15.58
2023-05-19T23:36:58.050Z,15.65
2023-05-19T23:39:25.459Z,15.71
2023-05-19T23:41:53.170Z,15.59
2023-05-19T23:44:20.444Z,15.55
2023-05-19T23:46:50.578Z,15.57
2023-05-19T23:49:17.980Z,15.58
2023-05-19T23:51:45.274Z,15.48
2023-05-19T23:54:12.489Z,15.47
2023-05-19T23:56:39.768Z,15.49
2023-05-19T23:59:07.001Z,15.46
